Civitavecchia, Italy

06:47 PM CET del 20 Febbraio 2017 (GMT +0100)
Cerveteri | | Change Station

Alt. 30 ft 41.98 °N, 12.04 °E | Updated 7 minutes ago

Sereno
Sereno
48.7 °F
Sembra 49 °F
N
0.0
Vento Variabile Vento da NE
Gusts 2.9 mph

Oggi
Massima -- | Minima -- °F
--% Possibilità di precip.
Ieri
Massima -- | Minima -- °F
Precip. -- in
Pressione 30.18 in
Visibilità -9999.0 miglia
Nuvole
Raffreddamento del vento 49 °F
Punto di rugiada 34 °F
Umidità 57%
Piovosità 0.00 in
Spessore del manto nevoso Non disponibile.
7:01 AM 5:51 PM
Luna calante, 32% visible
METAR LIRF 201720Z 31004KT CAVOK 10/03 Q1022 NOSIG
Pressione 30.18 in
Visibilità -9999.0 miglia
Nuvole
Raffreddamento del vento 49 °F
Punto di rugiada 34 °F
Umidità 57%
Piovosità 0.00 in
Spessore del manto nevoso Non disponibile.
7:01 AM 5:51 PM
Luna calante, 32% visible
METAR LIRF 201720Z 31004KT CAVOK 10/03 Q1022 NOSIG

Get Your Daily Forecast Email!

Thanks for signing up!

Be on the lookout for a verification email in your inbox.

You'll start receiving the daily forecast at 8 AM.

×

10-Day Weather Forecast

×

Almanac

Astronomia

Feb. 20, 2017 Alba Tramonto
Ora attuale
Crepuscolo civile
Crepuscolo nautico
Crepuscolo astronomico
Luna
Estensione della luce visibile
Lunghezza del giorno
Tomorrow will be .
, % of the Moon is Illuminated

Gli estremi di oggi

Massime Regione Minime Regione

Community

WunderPhotos

Upload Photos

1,962,540 foto caricate!

WunderBlog® & News

Nearby

Qualità dell'aria

  Qualità dell'aria Indice AQ Inquinante
Not available.

Profondità neve

Stazione Profondità Altitudine

Attività sismica

Città  Distanza Mag. Data & Ora
Minimo Magnitudo Mostrato è 2.5.

Temperature delle acque costiere

Località Temperatura

Stations

Stazioni meteo nelle vicinanze

Ubicazione della stazione Temp. Raffreddamento del vento Punto di rugiada Umidità Vento Precip. Alt. Aggiornato Tipo